createdAt,value
2017-11-14T00:00:43.105Z,4.30
2017-11-14T00:03:11.368Z,4.30
2017-11-14T00:05:39.614Z,4.40
2017-11-14T00:08:08.654Z,4.70
2017-11-14T00:10:36.910Z,4.70
2017-11-14T00:13:05.176Z,4.80
2017-11-14T00:15:33.429Z,4.70
2017-11-14T00:18:02.468Z,4.40
2017-11-14T00:20:30.724Z,4.30
2017-11-14T00:22:58.984Z,4.20
2017-11-14T00:25:28.012Z,4.00
2017-11-14T00:27:56.288Z,4.00
2017-11-14T00:30:24.541Z,3.90
2017-11-14T00:32:53.583Z,3.90
2017-11-14T00:35:21.835Z,3.90
2017-11-14T00:37:50.997Z,4.10
2017-11-14T00:40:20.054Z,4.40
2017-11-14T00:42:48.322Z,4.40
2017-11-14T00:45:16.574Z,4.50
2017-11-14T00:47:44.886Z,4.70
2017-11-14T00:50:13.126Z,4.80
2017-11-14T00:52:41.445Z,4.90
2017-11-14T00:55:09.692Z,5.00
2017-11-14T00:57:37.965Z,5.00
2017-11-14T01:00:06.234Z,5.00
2017-11-14T01:02:34.503Z,5.00
2017-11-14T01:05:02.828Z,5.00
2017-11-14T01:07:31.105Z,4.90
2017-11-14T01:09:59.373Z,5.00
2017-11-14T01:12:27.754Z,5.10
2017-11-14T01:14:56.005Z,5.00
2017-11-14T01:17:24.307Z,5.00
2017-11-14T01:19:52.591Z,4.90
2017-11-14T01:22:20.863Z,4.80
2017-11-14T01:24:49.113Z,4.80
2017-11-14T01:27:17.382Z,4.80
2017-11-14T01:29:45.646Z,4.80
2017-11-14T01:32:14.801Z,4.90
2017-11-14T01:34:43.072Z,4.90
2017-11-14T01:37:11.340Z,4.80
2017-11-14T01:39:39.592Z,4.80
2017-11-14T01:42:07.862Z,4.80
2017-11-14T01:44:36.121Z,4.90
2017-11-14T01:47:05.157Z,4.90
2017-11-14T01:49:33.422Z,4.90
2017-11-14T01:52:01.673Z,4.90
2017-11-14T01:54:30.812Z,4.80
2017-11-14T01:56:59.070Z,4.80
2017-11-14T01:59:27.337Z,4.90
2017-11-14T02:01:55.598Z,4.80
2017-11-14T02:04:24.633Z,4.80
2017-11-14T02:06:52.898Z,4.80
2017-11-14T02:09:21.173Z,4.90
2017-11-14T02:11:49.423Z,4.90
2017-11-14T02:14:18.456Z,5.00
2017-11-14T02:16:46.714Z,5.00
2017-11-14T02:19:14.981Z,4.80
2017-11-14T02:21:43.239Z,4.70
2017-11-14T02:24:12.285Z,4.40
2017-11-14T02:26:46.335Z,4.40
2017-11-14T02:29:15.378Z,4.70
2017-11-14T02:31:43.629Z,4.70
2017-11-14T02:34:12.662Z,4.70
2017-11-14T02:36:40.937Z,4.70
2017-11-14T02:39:10.097Z,4.70
2017-11-14T02:41:39.134Z,4.50
2017-11-14T02:44:07.394Z,4.50
2017-11-14T02:46:35.645Z,4.60
2017-11-14T02:49:04.735Z,4.60
2017-11-14T02:51:33.758Z,4.40
2017-11-14T02:54:02.042Z,4.40
2017-11-14T02:56:30.289Z,4.40
2017-11-14T02:58:59.357Z,4.10
2017-11-14T03:01:27.618Z,4.10
2017-11-14T03:03:55.995Z,3.90
2017-11-14T03:06:24.248Z,3.70
2017-11-14T03:08:52.518Z,3.50
2017-11-14T03:11:20.789Z,3.40
2017-11-14T03:13:49.061Z,3.30
2017-11-14T03:16:18.076Z,3.10
2017-11-14T03:18:47.117Z,3.00
2017-11-14T03:21:15.397Z,3.00
2017-11-14T03:23:43.663Z,3.00
2017-11-14T03:26:11.914Z,3.00
2017-11-14T03:28:40.181Z,2.90
2017-11-14T03:31:09.212Z,2.90
2017-11-14T03:33:37.476Z,2.90
2017-11-14T03:36:05.789Z,2.80
2017-11-14T03:38:34.048Z,2.90
2017-11-14T03:41:03.099Z,2.90
2017-11-14T03:43:32.124Z,3.10
2017-11-14T03:46:00.402Z,3.10
2017-11-14T03:48:28.653Z,3.20
2017-11-14T03:50:57.701Z,3.10
2017-11-14T03:53:25.943Z,3.10
2017-11-14T03:55:54.214Z,3.40
2017-11-14T03:58:22.485Z,3.60
2017-11-14T04:00:50.808Z,4.00
2017-11-14T04:03:19.053Z,4.00
2017-11-14T04:05:47.326Z,4.20
2017-11-14T04:08:15.594Z,4.20
2017-11-14T04:10:43.908Z,4.40
2017-11-14T04:13:12.150Z,4.40
2017-11-14T04:15:40.437Z,4.40
2017-11-14T04:18:08.690Z,4.50
2017-11-14T04:20:37.744Z,4.60
2017-11-14T04:23:05.997Z,4.50
2017-11-14T04:25:34.266Z,4.60
2017-11-14T04:28:02.520Z,4.60
2017-11-14T04:30:31.550Z,4.70
2017-11-14T04:32:59.797Z,4.70
2017-11-14T04:35:28.065Z,4.60
2017-11-14T04:37:57.092Z,4.70
2017-11-14T04:40:25.359Z,4.70
2017-11-14T04:42:53.608Z,4.90
2017-11-14T04:45:22.648Z,4.80
2017-11-14T04:47:50.902Z,4.80
2017-11-14T04:50:19.185Z,5.00
2017-11-14T04:52:47.442Z,4.90
2017-11-14T04:55:16.482Z,4.90
2017-11-14T04:57:44.735Z,4.90
2017-11-14T05:00:13.013Z,4.90
2017-11-14T05:02:41.272Z,4.90
2017-11-14T05:05:10.325Z,4.70
2017-11-14T05:07:38.681Z,4.70
2017-11-14T05:10:06.950Z,4.60
2017-11-14T05:12:35.199Z,4.50
2017-11-14T05:15:03.481Z,4.40
2017-11-14T05:17:31.733Z,4.30
2017-11-14T05:20:00.774Z,4.10
2017-11-14T05:22:29.040Z,4.10
2017-11-14T05:24:57.299Z,4.00
2017-11-14T05:27:25.574Z,4.00
2017-11-14T05:29:54.592Z,3.90
2017-11-14T05:32:22.868Z,3.90
2017-11-14T05:34:52.134Z,3.90
2017-11-14T05:37:21.195Z,3.80
2017-11-14T05:39:49.440Z,3.70
2017-11-14T05:42:17.718Z,3.70
2017-11-14T05:44:45.981Z,3.60
2017-11-14T05:47:14.252Z,3.60
2017-11-14T05:49:42.509Z,3.60
2017-11-14T05:52:11.549Z,3.60
2017-11-14T05:54:39.806Z,3.50
2017-11-14T05:57:08.082Z,3.60
2017-11-14T05:59:36.341Z,3.50
2017-11-14T06:02:05.425Z,3.30
2017-11-14T06:04:34.484Z,3.20
2017-11-14T06:07:03.604Z,3.20
2017-11-14T06:09:32.629Z,3.10
2017-11-14T06:12:00.902Z,3.10
2017-11-14T06:14:29.165Z,3.10
2017-11-14T06:16:58.206Z,2.90
2017-11-14T06:19:26.465Z,2.90
2017-11-14T06:21:54.772Z,2.90
2017-11-14T06:24:23.025Z,2.90
2017-11-14T06:26:51.320Z,2.80
2017-11-14T06:29:19.586Z,2.70
2017-11-14T06:31:47.844Z,2.60
2017-11-14T06:34:16.109Z,2.50
2017-11-14T06:36:44.390Z,2.60
2017-11-14T06:39:12.654Z,2.60
2017-11-14T06:41:41.024Z,2.70
2017-11-14T06:44:09.297Z,2.70
2017-11-14T06:46:37.588Z,2.70
2017-11-14T06:49:05.897Z,2.60
2017-11-14T06:51:34.984Z,2.40
2017-11-14T06:54:04.009Z,2.20
2017-11-14T06:56:32.282Z,2.20
2017-11-14T06:59:00.574Z,2.10
2017-11-14T07:01:28.833Z,2.10
2017-11-14T07:03:57.110Z,2.00
2017-11-14T07:06:25.387Z,1.90
2017-11-14T07:08:54.431Z,1.90
2017-11-14T07:11:22.690Z,1.90
2017-11-14T07:13:50.969Z,2.00
2017-11-14T07:16:19.292Z,2.00
2017-11-14T07:18:48.333Z,2.00
2017-11-14T07:21:16.597Z,2.00
2017-11-14T07:23:44.882Z,2.00
2017-11-14T07:26:13.184Z,2.00
2017-11-14T07:28:41.476Z,1.90
2017-11-14T07:31:09.732Z,1.90
2017-11-14T07:33:38.021Z,1.80
2017-11-14T07:36:06.305Z,1.80
2017-11-14T07:38:34.622Z,1.80
2017-11-14T07:41:02.890Z,1.80
2017-11-14T07:43:31.940Z,1.90
2017-11-14T07:46:00.211Z,1.90
2017-11-14T07:48:28.493Z,1.90
2017-11-14T07:50:56.754Z,2.00
2017-11-14T07:53:25.037Z,2.00
2017-11-14T07:55:53.313Z,2.00
2017-11-14T07:58:21.605Z,2.10
2017-11-14T08:00:49.883Z,2.10
2017-11-14T08:03:18.165Z,2.20
2017-11-14T08:05:46.444Z,2.10
2017-11-14T08:08:14.816Z,2.00
2017-11-14T08:10:43.078Z,2.10
2017-11-14T08:13:11.355Z,2.10
2017-11-14T08:15:39.623Z,2.10
2017-11-14T08:18:07.909Z,2.20
2017-11-14T08:20:36.168Z,2.30
2017-11-14T08:23:04.455Z,2.30
2017-11-14T08:25:32.712Z,2.20
2017-11-14T08:28:01.020Z,2.30
2017-11-14T08:30:29.278Z,2.40
2017-11-14T08:32:57.557Z,2.50
2017-11-14T08:35:25.814Z,2.50
2017-11-14T08:37:54.092Z,2.60
2017-11-14T08:40:22.365Z,2.60
2017-11-14T08:42:51.566Z,2.80
2017-11-14T08:45:20.597Z,2.90
2017-11-14T08:47:48.887Z,2.90
2017-11-14T08:50:17.164Z,3.00
2017-11-14T08:52:45.528Z,3.10
2017-11-14T08:55:13.795Z,3.20
2017-11-14T08:57:42.066Z,3.30
2017-11-14T09:00:10.353Z,3.50
2017-11-14T09:02:38.610Z,3.50
2017-11-14T09:05:06.882Z,3.60
2017-11-14T09:07:35.213Z,3.70
2017-11-14T09:10:03.506Z,3.80
2017-11-14T09:12:32.536Z,3.80
2017-11-14T09:15:00.825Z,3.70
2017-11-14T09:17:29.073Z,3.60
2017-11-14T09:19:57.358Z,3.80
2017-11-14T09:22:25.618Z,3.80
2017-11-14T09:24:53.922Z,4.00
2017-11-14T09:27:22.197Z,4.00
2017-11-14T09:29:50.474Z,4.00
2017-11-14T09:32:18.801Z,3.90
2017-11-14T09:34:47.086Z,3.90
2017-11-14T09:37:15.410Z,4.10
2017-11-14T09:39:43.686Z,4.20
2017-11-14T09:42:11.937Z,4.30
2017-11-14T09:44:41.548Z,4.20
2017-11-14T09:47:10.574Z,4.20
2017-11-14T09:49:38.858Z,4.20
2017-11-14T09:52:07.165Z,4.10
2017-11-14T09:54:35.441Z,4.20
2017-11-14T09:57:03.698Z,4.00
2017-11-14T09:59:31.977Z,4.10
2017-11-14T10:02:00.229Z,4.20
2017-11-14T10:04:28.510Z,4.20
2017-11-14T10:06:56.765Z,4.20
2017-11-14T10:09:25.802Z,4.40
2017-11-14T10:11:54.059Z,4.40
2017-11-14T10:14:22.330Z,4.50
2017-11-14T10:16:50.584Z,4.60
2017-11-14T10:19:19.661Z,4.90
2017-11-14T10:21:49.013Z,5.00
2017-11-14T10:24:17.327Z,5.00
2017-11-14T10:26:45.613Z,5.00
2017-11-14T10:29:13.862Z,5.40
2017-11-14T10:31:42.130Z,5.50
2017-11-14T10:34:10.388Z,5.60
2017-11-14T10:36:38.663Z,5.90
2017-11-14T10:39:06.946Z,5.90
2017-11-14T10:41:35.201Z,5.90
2017-11-14T10:44:03.514Z,6.00
2017-11-14T10:46:31.865Z,5.90
2017-11-14T10:49:00.139Z,5.80
2017-11-14T10:51:28.410Z,5.90
2017-11-14T10:53:56.667Z,5.90
2017-11-14T10:56:24.987Z,6.00
2017-11-14T10:58:53.244Z,6.00
2017-11-14T11:01:21.547Z,6.00
2017-11-14T11:03:49.825Z,6.00
2017-11-14T11:06:18.089Z,6.10
2017-11-14T11:08:46.361Z,6.10
2017-11-14T11:11:14.629Z,6.10
2017-11-14T11:13:42.881Z,6.10
2017-11-14T11:16:11.153Z,6.20
2017-11-14T11:18:40.177Z,6.10
2017-11-14T11:21:08.458Z,6.10
2017-11-14T11:23:36.748Z,6.00
2017-11-14T11:26:05.028Z,6.10
2017-11-14T11:28:33.297Z,6.20
2017-11-14T11:31:01.597Z,6.30
2017-11-14T11:33:31.498Z,6.10
2017-11-14T11:35:59.881Z,6.00
2017-11-14T11:38:28.161Z,6.10
2017-11-14T11:40:56.534Z,6.00
2017-11-14T11:43:24.793Z,6.10
2017-11-14T11:45:53.073Z,6.20
2017-11-14T11:48:21.341Z,6.10
2017-11-14T11:50:49.640Z,6.00
2017-11-14T11:53:17.900Z,6.10
2017-11-14T11:55:46.173Z,6.20
2017-11-14T11:58:14.471Z,6.30
2017-11-14T12:00:42.725Z,6.20
2017-11-14T12:03:11.031Z,6.20
2017-11-14T12:05:39.283Z,6.30
2017-11-14T12:08:07.558Z,6.50
2017-11-14T12:10:35.826Z,6.50
2017-11-14T12:13:04.135Z,6.50
2017-11-14T12:15:32.678Z,6.60
2017-11-14T12:18:01.710Z,6.80
2017-11-14T12:20:29.971Z,6.80
2017-11-14T12:22:58.252Z,6.80
2017-11-14T12:25:26.544Z,6.80
2017-11-14T12:27:54.817Z,6.90
2017-11-14T12:30:23.069Z,6.80
2017-11-14T12:32:51.355Z,7.00
2017-11-14T12:35:19.605Z,7.10
2017-11-14T12:37:48.648Z,7.40
2017-11-14T12:40:16.901Z,7.40
2017-11-14T12:42:47.137Z,7.70
2017-11-14T12:45:15.422Z,7.70
2017-11-14T12:47:43.717Z,7.90
2017-11-14T12:50:13.509Z,7.80
2017-11-14T12:52:41.784Z,7.80
2017-11-14T12:55:10.044Z,7.80
2017-11-14T12:57:38.329Z,8.10
2017-11-14T13:00:06.591Z,8.10
2017-11-14T13:02:34.872Z,8.30
2017-11-14T13:05:03.254Z,8.50
2017-11-14T13:07:31.513Z,8.60
2017-11-14T13:09:59.766Z,8.60
2017-11-14T13:12:28.038Z,8.70
2017-11-14T13:14:56.321Z,8.60
2017-11-14T13:17:24.586Z,8.50
2017-11-14T13:19:52.847Z,8.40
2017-11-14T13:22:21.896Z,8.20
2017-11-14T13:24:50.158Z,8.20
2017-11-14T13:27:18.438Z,8.20
2017-11-14T13:29:46.684Z,8.20
2017-11-14T13:32:15.724Z,8.30
2017-11-14T13:34:44.001Z,8.30
2017-11-14T13:37:12.265Z,8.40
2017-11-14T13:39:40.533Z,8.40
2017-11-14T13:42:08.789Z,8.50
2017-11-14T13:44:37.061Z,8.50
2017-11-14T13:47:06.081Z,8.50
2017-11-14T13:49:34.356Z,8.50
2017-11-14T13:52:02.621Z,8.50
2017-11-14T13:54:30.938Z,8.20
2017-11-14T13:56:59.192Z,8.10
2017-11-14T13:59:28.242Z,8.00
2017-11-14T14:01:56.496Z,8.00
2017-11-14T14:04:24.766Z,8.00
2017-11-14T14:06:53.787Z,8.20
2017-11-14T14:09:22.064Z,8.20
2017-11-14T14:11:50.374Z,8.20
2017-11-14T14:14:18.767Z,8.10
2017-11-14T14:16:47.233Z,8.10
2017-11-14T14:19:15.503Z,8.10
2017-11-14T14:21:43.785Z,8.10
2017-11-14T14:24:12.063Z,8.10
2017-11-14T14:26:40.305Z,8.00
2017-11-14T14:29:08.587Z,8.00
2017-11-14T14:31:36.905Z,8.10
2017-11-14T14:34:05.938Z,8.10
2017-11-14T14:36:35.161Z,8.10
2017-11-14T14:39:03.478Z,8.10
2017-11-14T14:41:31.736Z,8.00
2017-11-14T14:44:00.007Z,8.00
2017-11-14T14:46:28.254Z,8.00
2017-11-14T14:48:56.525Z,8.00
2017-11-14T14:51:24.773Z,7.90
2017-11-14T14:53:53.045Z,7.90
2017-11-14T14:56:21.288Z,7.90
2017-11-14T14:58:49.561Z,7.90
2017-11-14T15:01:17.818Z,7.90
2017-11-14T15:03:46.098Z,7.90
2017-11-14T15:06:14.358Z,7.90
2017-11-14T15:08:42.734Z,8.00
2017-11-14T15:11:11.124Z,7.90
2017-11-14T15:13:39.394Z,7.90
2017-11-14T15:16:07.647Z,7.90
2017-11-14T15:18:35.914Z,8.00
2017-11-14T15:21:04.205Z,8.00
2017-11-14T15:23:32.447Z,8.00
2017-11-14T15:26:00.718Z,7.90
2017-11-14T15:28:29.740Z,7.90
2017-11-14T15:30:58.040Z,7.90
2017-11-14T15:33:26.290Z,7.90
2017-11-14T15:35:54.562Z,7.90
2017-11-14T15:38:22.809Z,8.00
2017-11-14T15:40:51.976Z,7.90
2017-11-14T15:43:20.224Z,7.90
2017-11-14T15:45:48.491Z,7.90
2017-11-14T15:48:16.743Z,7.90
2017-11-14T15:50:45.777Z,8.00
2017-11-14T15:53:14.059Z,7.90
2017-11-14T15:55:42.336Z,8.00
2017-11-14T15:58:10.616Z,8.00
2017-11-14T16:00:38.888Z,7.90
2017-11-14T16:03:07.149Z,7.90
2017-11-14T16:05:35.459Z,7.90
2017-11-14T16:08:03.709Z,7.80
2017-11-14T16:10:31.981Z,7.70
2017-11-14T16:13:00.253Z,7.70
2017-11-14T16:15:28.540Z,7.70
2017-11-14T16:17:56.845Z,7.60
2017-11-14T16:20:25.121Z,7.70
2017-11-14T16:22:53.365Z,7.70
2017-11-14T16:25:21.617Z,7.70
2017-11-14T16:27:50.657Z,7.70
2017-11-14T16:30:18.902Z,7.70
2017-11-14T16:32:47.217Z,7.70
2017-11-14T16:35:15.493Z,7.70
2017-11-14T16:37:43.762Z,7.60
2017-11-14T16:40:12.027Z,7.70
2017-11-14T16:42:40.322Z,7.60
2017-11-14T16:45:08.592Z,7.60
2017-11-14T16:47:36.887Z,7.60
2017-11-14T16:50:05.129Z,7.60
2017-11-14T16:52:33.411Z,7.70
2017-11-14T16:55:01.663Z,7.70
2017-11-14T16:57:29.961Z,7.70
2017-11-14T16:59:58.274Z,7.70
2017-11-14T17:02:26.553Z,7.80
2017-11-14T17:04:54.814Z,7.80
2017-11-14T17:07:23.127Z,7.80
2017-11-14T17:09:51.365Z,7.80
2017-11-14T17:12:19.637Z,7.80
2017-11-14T17:14:47.908Z,7.80
2017-11-14T17:17:16.256Z,7.80
2017-11-14T17:19:45.294Z,7.80
2017-11-14T17:22:13.580Z,7.80
2017-11-14T17:24:41.860Z,7.80
2017-11-14T17:27:10.136Z,7.90
2017-11-14T17:29:38.413Z,7.90
2017-11-14T17:32:06.674Z,7.80
2017-11-14T17:34:34.935Z,7.80
2017-11-14T17:37:03.213Z,7.80
2017-11-14T17:39:31.465Z,7.90
2017-11-14T17:42:00.500Z,7.90
2017-11-14T17:44:28.793Z,7.80
2017-11-14T17:46:57.058Z,7.80
2017-11-14T17:49:25.317Z,7.80
2017-11-14T17:51:53.590Z,7.80
2017-11-14T17:54:21.902Z,7.70
2017-11-14T17:56:50.273Z,7.70
2017-11-14T17:59:18.555Z,7.70
2017-11-14T18:01:46.823Z,7.70
2017-11-14T18:04:15.077Z,7.70
2017-11-14T18:06:43.389Z,7.70
2017-11-14T18:09:11.641Z,7.60
2017-11-14T18:11:39.909Z,7.60
2017-11-14T18:14:08.176Z,7.70
2017-11-14T18:16:36.438Z,7.60
2017-11-14T18:19:05.481Z,7.60
2017-11-14T18:21:33.737Z,7.50
2017-11-14T18:24:02.012Z,7.50
2017-11-14T18:26:30.265Z,7.40
2017-11-14T18:28:59.316Z,7.20
2017-11-14T18:31:27.813Z,7.20
2017-11-14T18:33:57.626Z,7.20
2017-11-14T18:36:25.884Z,7.20
2017-11-14T18:38:54.154Z,7.20
2017-11-14T18:41:22.414Z,7.20
2017-11-14T18:43:50.780Z,7.20
2017-11-14T18:46:19.034Z,7.20
2017-11-14T18:48:48.641Z,7.20
2017-11-14T18:51:17.653Z,7.20
2017-11-14T18:53:45.924Z,7.20
2017-11-14T18:56:14.182Z,7.20
2017-11-14T18:58:42.464Z,7.30
2017-11-14T19:01:11.512Z,7.20
2017-11-14T19:03:39.785Z,7.20
2017-11-14T19:06:08.072Z,7.20
2017-11-14T19:08:36.343Z,7.30
2017-11-14T19:11:04.598Z,7.30
2017-11-14T19:13:32.877Z,7.20
2017-11-14T19:16:01.135Z,7.30
2017-11-14T19:18:30.176Z,7.40
2017-11-14T19:20:58.562Z,7.30
2017-11-14T19:23:26.817Z,7.40
2017-11-14T19:25:55.091Z,7.40
2017-11-14T19:28:23.359Z,7.40
2017-11-14T19:30:51.635Z,7.40
2017-11-14T19:33:19.893Z,7.40
2017-11-14T19:35:48.136Z,7.40
2017-11-14T19:38:17.914Z,7.40
2017-11-14T19:40:46.156Z,7.40
2017-11-14T19:43:14.486Z,7.50
2017-11-14T19:45:42.733Z,7.50
2017-11-14T19:48:11.038Z,7.60
2017-11-14T19:50:39.286Z,7.60
2017-11-14T19:53:07.557Z,7.60
2017-11-14T19:55:35.810Z,7.60
2017-11-14T19:58:04.857Z,7.50
2017-11-14T20:00:33.109Z,7.50
2017-11-14T20:03:01.383Z,7.50
2017-11-14T20:05:29.625Z,7.50
2017-11-14T20:07:58.687Z,7.60
2017-11-14T20:10:26.954Z,7.60
2017-11-14T20:12:55.229Z,7.50
2017-11-14T20:15:23.485Z,7.50
2017-11-14T20:17:51.790Z,7.50
2017-11-14T20:20:20.038Z,7.40
2017-11-14T20:22:48.308Z,7.50
2017-11-14T20:25:16.615Z,7.50
2017-11-14T20:27:44.905Z,7.50
2017-11-14T20:30:13.149Z,7.40
2017-11-14T20:32:41.417Z,7.40
2017-11-14T20:35:09.756Z,7.50
2017-11-14T20:37:37.998Z,7.50
2017-11-14T20:40:06.289Z,7.40
2017-11-14T20:42:34.569Z,7.50
2017-11-14T20:45:02.846Z,7.40
2017-11-14T20:47:31.102Z,7.40
2017-11-14T20:49:59.369Z,7.40
2017-11-14T20:52:27.618Z,7.40
2017-11-14T20:54:56.657Z,7.40
2017-11-14T20:57:24.942Z,7.40
2017-11-14T20:59:53.222Z,7.40
2017-11-14T21:02:21.473Z,7.40
2017-11-14T21:04:49.765Z,7.40
2017-11-14T21:07:18.026Z,7.40
2017-11-14T21:09:46.345Z,7.30
2017-11-14T21:12:14.598Z,7.30
2017-11-14T21:14:42.865Z,7.30
2017-11-14T21:17:11.113Z,7.30
2017-11-14T21:19:39.544Z,7.30
2017-11-14T21:22:07.813Z,7.30
2017-11-14T21:24:36.169Z,7.20
2017-11-14T21:27:04.451Z,7.20
2017-11-14T21:29:32.718Z,7.30
2017-11-14T21:32:00.966Z,7.30
2017-11-14T21:34:29.997Z,7.40
2017-11-14T21:36:58.278Z,7.40
2017-11-14T21:39:26.555Z,7.30
2017-11-14T21:41:54.805Z,7.20
2017-11-14T21:44:23.082Z,7.20
2017-11-14T21:46:51.395Z,7.30
2017-11-14T21:49:19.661Z,7.20
2017-11-14T21:51:47.912Z,7.20
2017-11-14T21:54:16.232Z,7.20
2017-11-14T21:56:44.481Z,7.20
2017-11-14T21:59:12.793Z,7.20
2017-11-14T22:01:41.045Z,7.20
2017-11-14T22:04:09.344Z,7.20
2017-11-14T22:06:37.602Z,7.20
2017-11-14T22:09:05.877Z,7.30
2017-11-14T22:11:34.143Z,7.30
2017-11-14T22:14:02.418Z,7.30
2017-11-14T22:16:30.677Z,7.30
2017-11-14T22:18:58.941Z,7.40
2017-11-14T22:21:27.977Z,7.50
2017-11-14T22:23:56.243Z,7.50
2017-11-14T22:26:24.513Z,7.60
2017-11-14T22:28:52.765Z,7.70
2017-11-14T22:31:21.814Z,7.70
2017-11-14T22:33:50.070Z,7.70
2017-11-14T22:36:18.353Z,7.70
2017-11-14T22:38:46.613Z,7.60
2017-11-14T22:41:14.889Z,7.70
2017-11-14T22:43:43.172Z,7.70
2017-11-14T22:46:11.507Z,7.60
2017-11-14T22:48:39.865Z,7.60
2017-11-14T22:51:08.165Z,7.60
2017-11-14T22:53:36.521Z,7.60
2017-11-14T22:56:04.798Z,7.60
2017-11-14T22:58:33.049Z,7.60
2017-11-14T23:01:01.385Z,7.60
2017-11-14T23:03:29.633Z,7.60
2017-11-14T23:05:58.004Z,7.60
2017-11-14T23:08:26.256Z,7.60
2017-11-14T23:10:54.552Z,7.70
2017-11-14T23:13:22.805Z,7.80
2017-11-14T23:15:51.111Z,7.80
2017-11-14T23:18:19.372Z,7.80
2017-11-14T23:20:47.647Z,7.80
2017-11-14T23:23:15.943Z,7.70
2017-11-14T23:25:44.330Z,7.70
2017-11-14T23:28:12.579Z,7.70
2017-11-14T23:30:40.853Z,7.70
2017-11-14T23:33:09.121Z,7.60
2017-11-14T23:35:37.434Z,7.60
2017-11-14T23:38:05.816Z,7.70
2017-11-14T23:40:34.093Z,7.60
2017-11-14T23:43:02.345Z,7.60
2017-11-14T23:45:30.625Z,7.60
2017-11-14T23:47:58.890Z,7.60
2017-11-14T23:50:27.149Z,7.60
2017-11-14T23:52:55.426Z,7.60
2017-11-14T23:55:23.740Z,7.60
2017-11-14T23:57:52.030Z,7.60
